Terminal Aerodrome Forecast
Issued by NWS St Louis, MO

Home | Current Version | Previous Version | Text Only | Print | Product List | Glossary On
Versions: 1 2 3 4 5 6 7 8 9 10 11 12 13 14 15 16 17 18 19 20 21 22 23 24 25 26 27 28 29 30 31 32 33 34
000
FTUS43 KLSX 020800 AAD
TAFSTL
TAF AMD
KSTL 020840Z 0209/0312 34014KT P6SM VCSH SCT005 OVC025
      TEMPO 0209/0212 2SM TSRA BR OVC025CB
     FM021200 08007KT 6SM -SHRA VCTS BKN040CB
     FM021500 18008KT P6SM BKN050
     FM022100 18010KT 6SM -SHRA VCTS BKN040CB=

USA.gov is the U.S. government's official web portal to all federal, state and local government web resources and services.